KR-0316 weather

Haeundae I Park Marina Tower 2 Heliport
Busan, Busan Gwang'yeogsi, South Korea

Public forecast

Using degrees Celsius for public forecast. Weather courtesy of forecast.io.

METAR (pilot weather report)

Closest report is Gimhae International Airport, 10.1 nm (18.7 km) W. Retrieved 2019/08/22 16:00 UTC (52 minutes ago):

RKPK 221600Z 00000KT CAVOK 26/24 Q0988

TAF (pilot weather forecast)

Closest forecast is Gimhae International Airport, 10.1 nm (18.7 km) W. Retrieved 2019/08/22 12:00 UTC (5 hours ago):

TAF RKPK 221100Z 2212/2318 33006KT 9999 SCT030 BKN200 TN24/2220Z TX31/2305Z BECMG 2219/2220 4800 BR BECMG 2301/2302 9999 NSW BECMG 2302/2303 18008KT BECMG 2310/2311 33006KT